Pagina principale
METAR-TAF:

METAR-TAF

Aeroporti :

Memmingen, Germania

latitudine: 47-59-33N, longitudine: 10-14-37E, altezza: 633 m

Osservazione

Il bollettino è stato emesso 34 minuti fa, alle 15:50 UTC
Vento 9 kt da est/nord-est, variando fra nord e est/sud-est
Temperature 17°C
Umidità 39%
Pressione 1019 hPa
Visibilità 10 km o più

METAR: EDJA 311550Z AUTO 06009KT 010V120 9999 // NCD 17/03 Q1019

Ora: 18:24 (16:24 UTC)

Previsione

Il bollettino è stato emesso 2 ore e 24 minuti fa, alle 14:00 UTC
Previsione valida dal 31 alle 15 UTC al 31 alle 24 UTC
Vento 7 kt da est/nord-est
Visibilità 10 km o più
Poco nuvoloso ad un'altezza di 4500 ft

TAF: EDJA 311400Z 3115/3124 06007KT 9999 FEW045

Osservazioni e previsioni meteorologiche di più di 4000 aeroporti (messaggi METAR e TAF).

Le stazioni disponibili sono rappresentate dai dischi gialli e rossi sulla carta.

Puntare il mouse per vedere il nome della stazione.

Clicca sopra per visualizzare le osservazioni e previsioni meteorologiche.

Per cambiare la mappa : fare clic sui pulsanti verdi con una croce nera per ingrandire, il pulsante verde con un trattino per diminuire, o sulla freccia verde per le mappe adiacenti.


METAR-TAF: